Port Hope, MI (48468)

00:26 EDT le 23 octobre 2014 (GMT -0400)
Eastwatch-by-the-Sea | Change Station
CLOSE
Current Station
Stations météorologiques personnelles
Location: Port Hope, MI
Altitude: 565 ft
Stations météo à proximité

Alt. 565 ft 43.95 °N, 82.72 °W | Updated 9 seconds ago

Ciel dégagé
Ciel dégagé
35.4 ° F
Paraît 32 ° F
N
3.8
Vent Variable Vent de SO
Gusts 5.4 mph

Aujourd'hui
Haut(e) -- | Bas -- ° F
--% Risque de précip.
Hier
Haut(e) -- | Bas -- ° F
Precip. -- pouce
7:55 AM 6:34 PM
Lune descendante, 1% visible
Pression 30.29 pouce
Visibilité 7.0 Miles terrestres
Nuages Ciel dégagé
Refroidissement éolien 32 ° F
Point de rosée 35 ° F
Humidité 98%
Précipitations 0.00 pouce
Profondeur de la couche neigeuse Non disponible.
UV 0 sur 12
Pollen .80 sur 12
PM2.5 Bon
Flu Activity Sporadic
METAR KBAX 230419Z AUTO 00000KT 7SM CLR M01/M01 A3029 RMK AO2 T10141014

More Conditions Fewer Conditions

Pression 30.29 pouce
Visibilité 7.0 Miles terrestres
Nuages Ciel dégagé
Refroidissement éolien 32 ° F
Point de rosée 35 ° F
Humidité 98%
Précipitations 0.00 pouce
Profondeur de la couche neigeuse Non disponible.
UV 0 sur 12
Pollen .80 sur 12
PM2.5 Bon
Flu Activity Sporadic
METAR KBAX 230419Z AUTO 00000KT 7SM CLR M01/M01 A3029 RMK AO2 T10141014

More Conditions Fewer Conditions

10-Day Weather Forecast

Almanac

Astronomie

Oct. 23, 2014 Lever Coucher
Temps réel 07:55 EDT 18:34 EDT
Crépuscule civil 07:26 EDT 19:03 EDT
Crépuscule nautique 06:52 EDT 19:37 EDT
Crépuscule astronomique 06:19 EDT 20:10 EDT
Lune 07:33 EDT 18:35 EDT
Durée de lumière visible 11h 37m
Longueur du jour
10h 38m
Tomorrow will be 2m 49s shorter.
Lune descendante, 1% of the Moon is Illuminated
Aujourd'hui
Lune descendante
Oct 23
Nouveau
Oct 30
Premier quartier
Nov 6
Pleine lune
Nov 14
Dernier quartier

Extrêmes aujourd'hui

State Highs State Lows

Community

WunderPhotos

Upload Photos

1,764,150 Photos téléchargées !

Nearby

Qualité de l'air

  Qualité de l'air Indice de la qualité de l'air Polluant
Hier Bon
PM2.5
Actuel Bon
PM2.5
mercredi Bon
PM2.5
jeudi Bon
PM2.5
vendredi Bon
PM2.5
samedi Bon
PM2.5
dimanche Bon
PM2.5
lundi Bon
PM2.5

Épaisseur de neige

Station Depth Altitude
Pas de nouvelles chutes de neige

Activité sismique

Ville Distance Mag. Time & Date
No recent earthquake activity has been reported nearby.
Minimum magnitude displayed is 2.5.

Températures des eaux côtières

Lieu Température
Harbor Beach, MI 48.9 ° F

Stations météo à proximité